KHUL Airport (Houlton Intl) Information

FAA: HUL - ICAO: KHUL

KHUL Airport Location

State Maine
County Aroostook
City Houlton
KHUL Airport is 2 miles east of Houlton, ME.
Latitude 46-07-28.5850N
Longitude 067-47-32.4970W
Elevation 489ft

KHUL Airport METARs

METAR KHUL 282153Z AUTO 36012KT 8SM -RA SCT006 BKN011 OVC017 16/14 A2961 RMK AO2 PRESRR SLP027 P0009 T01560144
Altimeter 29.61"
Temperature 15.6°C (60.1°F)
Wind 360° at 12KT
Clouds scattered at 600ft broken at 1,100ft overcast at 1,700ft
Visibility 8.0mi
Time observed: 2022-05-28T21:53:00Z

KHUL Airport Details

Status Operational
Activation April 1940
Ownership Public
Usage Public
Chart HALIFAX
ATC on-site No
Beacon schedule sunset-sunrise
Beacon color clear green

KHUL Airport Contacts

Owner TOWN OF HOULTON
Owner address 21 WATER STREET, HOULTON, ME 04730
Owner phone 207-532-7111
Manager RICHARD L KNIGHT
Manager address 353 MOUNTFORT RD, NORTH YARMOUTH, ME 04097
Manager phone 207-846-4520

KHUL Airport (Houlton Intl) Radio Frequencies

KHUL (Airport) Radio Frequencies

UNICOM 122.8
Common traffic advisory frequency (CTAF) 122.8